Time;durP1;ratioP1;P1;durP2;ratioP2;P2;SDS_P1;SDS_P2;PMS_P1;PMS_P2;Temp;Humidity;BMP_temperature;BMP_pressure;BME280_temperature;BME280_humidity;BME280_pressure;Samples;Min_cycle;Max_cycle;Signal;HPM_P1;HPM_P2
2023/08/30 00:00:08;;;;;;;7.13;3.25;;;;;;;;;;5017127;28;20057;-59
2023/08/30 00:02:56;;;;;;;8.20;3.33;;;;;;;;;;5022425;28;20610;-64
2023/08/30 00:05:49;;;;;;;8.25;3.58;;;;;;;;;;5025421;28;20413;-59
2023/08/30 00:08:36;;;;;;;11.18;3.75;;;;;;;;;;5027530;28;20049;-59
2023/08/30 00:11:32;;;;;;;8.85;3.47;;;;;;;;;;5022163;28;20045;-61
2023/08/30 00:14:24;;;;;;;10.38;3.45;;;;;;;;;;5023224;28;20057;-59
2023/08/30 00:17:19;;;;;;;7.57;3.40;;;;;;;;;;5029496;28;20108;-59
2023/08/30 00:20:06;;;;;;;7.18;3.30;;;;;;;;;;5025482;28;20060;-59
2023/08/30 00:22:59;;;;;;;10.82;3.88;;;;;;;;;;5026600;28;20155;-59
2023/08/30 00:25:46;;;;;;;8.35;3.65;;;;;;;;;;5025461;28;20102;-60
2023/08/30 00:28:40;;;;;;;11.27;3.95;;;;;;;;;;5017013;28;20108;-59
2023/08/30 00:31:27;;;;;;;10.10;3.90;;;;;;;;;;5023810;28;20464;-49
2023/08/30 00:34:21;;;;;;;9.48;3.97;;;;;;;;;;5023605;28;20057;-51
2023/08/30 00:37:08;;;;;;;7.57;3.60;;;;;;;;;;5022183;28;20115;-57
2023/08/30 00:40:03;;;;;;;12.02;3.78;;;;;;;;;;5019834;28;20109;-56
2023/08/30 00:42:49;;;;;;;11.13;4.15;;;;;;;;;;5018689;28;20136;-58
2023/08/30 00:45:50;;;;;;;7.30;3.67;;;;;;;;;;5016928;28;20121;-58
2023/08/30 00:48:45;;;;;;;5.50;3.58;;;;;;;;;;5004038;28;20108;-56
2023/08/30 00:51:38;;;;;;;7.40;3.60;;;;;;;;;;5000080;28;20052;-57
2023/08/30 00:54:26;;;;;;;8.13;3.80;;;;;;;;;;5001256;28;20792;-54
2023/08/30 00:57:19;;;;;;;8.57;3.08;;;;;;;;;;5002189;28;20062;-57
2023/08/30 01:00:27;;;;;;;6.40;3.35;;;;;;;;;;5001703;28;20480;-58
2023/08/30 01:03:22;;;;;;;11.52;3.42;;;;;;;;;;4999891;28;20065;-64
2023/08/30 01:06:08;;;;;;;13.05;3.95;;;;;;;;;;4999063;28;20046;-65
2023/08/30 01:09:03;;;;;;;5.93;3.25;;;;;;;;;;5003992;28;20062;-64
2023/08/30 01:11:53;;;;;;;6.72;3.20;;;;;;;;;;5003951;28;20272;-65
2023/08/30 01:14:53;;;;;;;8.27;3.28;;;;;;;;;;5007252;28;20081;-64
2023/08/30 01:17:41;;;;;;;8.98;3.55;;;;;;;;;;5006161;28;20132;-65
2023/08/30 01:20:37;;;;;;;12.55;3.20;;;;;;;;;;5002729;28;20058;-57
2023/08/30 01:23:25;;;;;;;9.63;3.50;;;;;;;;;;5003907;28;20049;-57
2023/08/30 01:26:18;;;;;;;8.93;3.25;;;;;;;;;;5003909;28;20046;-55
2023/08/30 01:29:06;;;;;;;5.70;3.50;;;;;;;;;;4998740;28;20094;-59
2023/08/30 01:32:00;;;;;;;11.70;4.10;;;;;;;;;;5002153;28;20389;-64
2023/08/30 01:34:49;;;;;;;6.43;3.20;;;;;;;;;;5006789;28;20061;-64
2023/08/30 01:37:42;;;;;;;5.80;3.60;;;;;;;;;;4995933;28;20050;-64
2023/08/30 01:40:32;;;;;;;12.07;3.55;;;;;;;;;;4998186;28;20057;-64
2023/08/30 01:43:30;;;;;;;5.72;3.60;;;;;;;;;;5008251;28;20409;-64
2023/08/30 01:46:19;;;;;;;7.55;4.13;;;;;;;;;;5012423;28;20053;-64
2023/08/30 01:49:18;;;;;;;13.68;4.57;;;;;;;;;;5015537;28;20537;-64
2023/08/30 01:52:06;;;;;;;11.63;3.75;;;;;;;;;;5018867;28;20049;-65
2023/08/30 01:55:00;;;;;;;9.05;3.85;;;;;;;;;;5020817;28;20054;-65
2023/08/30 01:57:48;;;;;;;8.07;4.15;;;;;;;;;;5020402;28;20121;-59
2023/08/30 02:00:42;;;;;;;11.13;3.60;;;;;;;;;;5021196;28;20350;-50
2023/08/30 02:03:29;;;;;;;10.50;3.95;;;;;;;;;;5019070;28;20501;-50
2023/08/30 02:06:30;;;;;;;9.90;4.05;;;;;;;;;;5013088;28;20057;-49
2023/08/30 02:09:36;;;;;;;8.95;3.83;;;;;;;;;;5023377;28;20123;-47
2023/08/30 02:12:35;;;;;;;10.30;3.97;;;;;;;;;;5014889;28;20167;-46
2023/08/30 02:15:24;;;;;;;5.32;3.60;;;;;;;;;;5017601;28;20045;-60
2023/08/30 02:18:19;;;;;;;7.93;3.90;;;;;;;;;;5021724;28;20254;-59
2023/08/30 02:21:06;;;;;;;5.93;4.03;;;;;;;;;;5019941;28;20546;-59
2023/08/30 02:24:00;;;;;;;8.88;4.13;;;;;;;;;;5023180;28;20081;-59
2023/08/30 02:26:47;;;;;;;9.68;3.50;;;;;;;;;;5024302;28;20045;-59
2023/08/30 02:29:41;;;;;;;12.15;3.80;;;;;;;;;;5027274;28;20099;-64
2023/08/30 02:32:29;;;;;;;8.77;4.00;;;;;;;;;;5017548;28;20057;-67
2023/08/30 02:35:22;;;;;;;9.55;3.70;;;;;;;;;;5023250;28;20057;-64
2023/08/30 02:38:09;;;;;;;11.90;3.97;;;;;;;;;;5019399;28;20045;-64
2023/08/30 02:41:03;;;;;;;10.38;4.38;;;;;;;;;;5013051;28;20148;-65
2023/08/30 02:43:50;;;;;;;6.55;4.10;;;;;;;;;;5030331;28;20045;-64
2023/08/30 02:46:51;;;;;;;6.15;3.90;;;;;;;;;;5024140;28;20057;-64
2023/08/30 02:49:38;;;;;;;12.80;4.10;;;;;;;;;;5026478;28;20054;-64
2023/08/30 02:52:31;;;;;;;12.80;3.83;;;;;;;;;;5026689;28;20099;-65
2023/08/30 02:55:18;;;;;;;7.43;3.78;;;;;;;;;;5022222;28;20151;-49
2023/08/30 02:58:12;;;;;;;5.90;2.90;;;;;;;;;;5027253;28;20049;-59
2023/08/30 03:01:02;;;;;;;13.27;4.47;;;;;;;;;;5024590;28;20060;-60
2023/08/30 03:03:54;;;;;;;7.45;4.20;;;;;;;;;;5022530;28;20061;-60
2023/08/30 03:06:41;;;;;;;15.82;4.85;;;;;;;;;;5022392;28;20302;-60
2023/08/30 03:09:35;;;;;;;9.23;4.53;;;;;;;;;;5027227;28;20132;-59
2023/08/30 03:12:23;;;;;;;9.40;4.75;;;;;;;;;;5020848;28;20156;-48
2023/08/30 03:15:16;;;;;;;11.23;4.65;;;;;;;;;;5028226;28;20543;-50
2023/08/30 03:18:03;;;;;;;18.00;5.00;;;;;;;;;;5020031;28;20104;-52
2023/08/30 03:21:02;;;;;;;11.15;5.07;;;;;;;;;;5025546;28;20423;-47
2023/08/30 03:23:54;;;;;;;13.57;4.43;;;;;;;;;;5024308;28;20460;-57
2023/08/30 03:26:48;;;;;;;9.63;3.80;;;;;;;;;;5021269;28;20049;-66
2023/08/30 03:29:35;;;;;;;8.73;3.58;;;;;;;;;;5020238;28;20405;-66
2023/08/30 03:32:32;;;;;;;6.47;3.75;;;;;;;;;;5020390;28;20061;-66
2023/08/30 03:35:17;;;;;;;4.85;3.42;;;;;;;;;;5015931;28;20053;-66
2023/08/30 03:38:10;;;;;;;9.68;4.20;;;;;;;;;;5022476;28;20057;-66
2023/08/30 03:40:57;;;;;;;8.63;4.28;;;;;;;;;;5023240;28;20088;-60
2023/08/30 03:43:51;;;;;;;11.48;3.25;;;;;;;;;;5025455;28;20804;-59
2023/08/30 03:46:45;;;;;;;6.03;3.15;;;;;;;;;;5024966;28;20264;-60
2023/08/30 03:49:39;;;;;;;5.88;2.95;;;;;;;;;;5023493;28;20060;-60
2023/08/30 03:52:26;;;;;;;7.38;3.58;;;;;;;;;;5023083;28;20471;-59
2023/08/30 03:55:22;;;;;;;10.57;3.95;;;;;;;;;;5020333;28;20144;-49
2023/08/30 03:58:07;;;;;;;12.25;3.92;;;;;;;;;;5022799;28;20572;-51
2023/08/30 04:01:01;;;;;;;6.88;3.95;;;;;;;;;;5024211;28;20058;-47
2023/08/30 04:03:55;;;;;;;12.90;3.95;;;;;;;;;;5020941;28;20057;-50
2023/08/30 04:06:42;;;;;;;8.73;3.83;;;;;;;;;;5023493;28;20061;-50
2023/08/30 04:09:36;;;;;;;9.93;4.05;;;;;;;;;;5023817;28;20108;-52
2023/08/30 04:12:23;;;;;;;10.18;4.45;;;;;;;;;;5026847;28;20069;-48
2023/08/30 04:15:17;;;;;;;6.45;3.75;;;;;;;;;;5026148;28;20061;-53
2023/08/30 04:18:05;;;;;;;9.75;4.10;;;;;;;;;;5024444;28;20054;-51
2023/08/30 04:21:02;;;;;;;7.88;3.83;;;;;;;;;;5019977;28;20057;-50
2023/08/30 04:23:46;;;;;;;9.85;3.70;;;;;;;;;;5022103;28;20045;-50
2023/08/30 04:26:41;;;;;;;9.52;3.60;;;;;;;;;;5025545;28;20049;-49
2023/08/30 04:29:28;;;;;;;13.07;4.40;;;;;;;;;;5016079;28;20131;-51
2023/08/30 04:32:21;;;;;;;7.45;3.40;;;;;;;;;;5016827;28;20473;-55
2023/08/30 04:35:09;;;;;;;9.60;3.42;;;;;;;;;;5022469;28;20468;-49
2023/08/30 04:38:03;;;;;;;8.90;3.72;;;;;;;;;;5024946;28;20044;-59
2023/08/30 04:40:50;;;;;;;6.75;3.63;;;;;;;;;;5018027;28;20119;-60
2023/08/30 04:43:43;;;;;;;14.35;4.13;;;;;;;;;;5020587;28;20818;-60
2023/08/30 04:46:37;;;;;;;11.02;4.00;;;;;;;;;;5001952;28;20046;-60
2023/08/30 04:49:30;;;;;;;10.52;3.80;;;;;;;;;;4999966;28;20470;-60
2023/08/30 04:52:17;;;;;;;12.35;3.75;;;;;;;;;;5001121;28;20129;-66
2023/08/30 04:55:11;;;;;;;11.10;4.00;;;;;;;;;;4999389;28;20657;-65
2023/08/30 04:57:58;;;;;;;7.90;3.95;;;;;;;;;;4999495;28;20062;-65
2023/08/30 05:00:52;;;;;;;10.35;3.70;;;;;;;;;;4996795;28;21070;-65
2023/08/30 05:03:40;;;;;;;8.43;4.10;;;;;;;;;;5002066;28;20159;-65
2023/08/30 05:06:33;;;;;;;15.48;5.07;;;;;;;;;;5002693;28;20136;-54
2023/08/30 05:09:24;;;;;;;7.70;3.83;;;;;;;;;;5008178;28;20063;-57
2023/08/30 05:12:14;;;;;;;10.75;3.85;;;;;;;;;;5004618;28;20050;-56
2023/08/30 05:15:02;;;;;;;6.78;3.33;;;;;;;;;;5003588;28;20054;-56
2023/08/30 05:17:55;;;;;;;14.43;3.65;;;;;;;;;;5003231;28;20060;-51
2023/08/30 05:20:42;;;;;;;9.70;3.92;;;;;;;;;;5001849;28;20595;-52
2023/08/30 05:23:36;;;;;;;8.23;3.90;;;;;;;;;;5002753;28;20058;-51
2023/08/30 05:26:23;;;;;;;9.57;3.90;;;;;;;;;;5004920;28;20324;-51
2023/08/30 05:29:17;;;;;;;6.93;3.80;;;;;;;;;;5004225;28;20054;-49
2023/08/30 05:32:05;;;;;;;11.00;3.80;;;;;;;;;;5005479;28;20074;-49
2023/08/30 05:34:59;;;;;;;9.07;3.88;;;;;;;;;;5002576;28;20054;-49
2023/08/30 05:37:46;;;;;;;5.50;3.63;;;;;;;;;;5001406;28;20057;-53
2023/08/30 05:40:44;;;;;;;5.60;2.97;;;;;;;;;;5006240;28;20457;-49
2023/08/30 05:43:27;;;;;;;8.48;4.30;;;;;;;;;;5003381;28;20045;-50
2023/08/30 05:46:28;;;;;;;7.15;3.15;;;;;;;;;;5002677;28;20141;-65
2023/08/30 05:49:22;;;;;;;7.72;3.70;;;;;;;;;;5003991;28;20053;-57
2023/08/30 05:52:16;;;;;;;7.55;3.33;;;;;;;;;;5003200;28;20529;-57
2023/08/30 05:55:03;;;;;;;4.15;3.25;;;;;;;;;;4999924;28;20506;-57
2023/08/30 05:57:56;;;;;;;8.38;3.90;;;;;;;;;;5004859;28;20502;-56
2023/08/30 06:00:43;;;;;;;9.68;3.60;;;;;;;;;;5004202;28;20121;-56
2023/08/30 06:03:37;;;;;;;7.97;3.75;;;;;;;;;;5006190;28;20049;-57
2023/08/30 06:06:27;;;;;;;8.98;3.60;;;;;;;;;;5003306;28;20592;-57
2023/08/30 06:09:18;;;;;;;10.40;3.45;;;;;;;;;;5002973;28;20437;-57
2023/08/30 06:12:12;;;;;;;7.00;3.30;;;;;;;;;;5002704;28;20060;-57
2023/08/30 06:14:59;;;;;;;8.73;3.53;;;;;;;;;;5001252;28;20061;-65
2023/08/30 06:17:53;;;;;;;10.20;3.10;;;;;;;;;;5000525;28;20054;-60
2023/08/30 06:20:41;;;;;;;5.88;3.17;;;;;;;;;;5003011;28;20133;-59
2023/08/30 06:23:34;;;;;;;7.22;3.25;;;;;;;;;;5000905;28;20046;-59
2023/08/30 06:26:21;;;;;;;6.70;2.60;;;;;;;;;;5000955;28;20108;-59
2023/08/30 06:29:15;;;;;;;7.80;3.10;;;;;;;;;;5000476;28;20116;-59
2023/08/30 06:32:03;;;;;;;8.70;2.63;;;;;;;;;;5000396;28;20138;-52
2023/08/30 06:34:56;;;;;;;5.55;2.53;;;;;;;;;;5000806;28;20435;-52
2023/08/30 06:37:43;;;;;;;8.43;2.95;;;;;;;;;;5001078;28;20140;-49
2023/08/30 06:40:43;;;;;;;5.10;2.30;;;;;;;;;;5000512;28;20068;-52
2023/08/30 06:43:37;;;;;;;10.77;2.13;;;;;;;;;;5002088;28;20119;-61
2023/08/30 06:46:31;;;;;;;7.93;2.20;;;;;;;;;;5003416;28;20308;-52
2023/08/30 06:49:35;;;;;;;4.53;2.50;;;;;;;;;;5004119;28;20301;-49
2023/08/30 06:52:22;;;;;;;4.57;2.63;;;;;;;;;;5002503;28;20057;-52
2023/08/30 06:55:16;;;;;;;8.45;2.50;;;;;;;;;;5002770;28;20080;-47
2023/08/30 06:58:04;;;;;;;7.95;2.65;;;;;;;;;;5004166;28;20046;-49
2023/08/30 07:00:58;;;;;;;4.50;2.88;;;;;;;;;;5004717;28;20677;-65
2023/08/30 07:03:51;;;;;;;7.45;2.50;;;;;;;;;;5004812;28;20053;-65
2023/08/30 07:06:45;;;;;;;7.07;2.50;;;;;;;;;;5006238;28;20050;-65
2023/08/30 07:09:33;;;;;;;5.50;2.20;;;;;;;;;;5001507;28;20077;-65
2023/08/30 07:12:26;;;;;;;5.90;2.40;;;;;;;;;;4997641;28;20528;-60
2023/08/30 07:15:14;;;;;;;8.73;2.55;;;;;;;;;;5009085;28;20133;-49
2023/08/30 07:18:08;;;;;;;5.57;2.40;;;;;;;;;;5002252;28;20052;-51
2023/08/30 07:20:55;;;;;;;5.43;2.38;;;;;;;;;;5006354;28;20486;-50
2023/08/30 07:23:49;;;;;;;4.07;2.00;;;;;;;;;;5003332;28;20186;-54
2023/08/30 07:26:36;;;;;;;6.00;2.22;;;;;;;;;;5008057;28;20061;-51
2023/08/30 07:29:31;;;;;;;8.00;2.42;;;;;;;;;;4997518;28;20065;-52
2023/08/30 07:32:18;;;;;;;5.35;2.20;;;;;;;;;;5008880;28;20510;-51
2023/08/30 07:35:12;;;;;;;8.07;2.28;;;;;;;;;;5005252;28;20072;-50
2023/08/30 07:38:00;;;;;;;4.60;2.03;;;;;;;;;;5005966;28;20041;-47
2023/08/30 07:40:54;;;;;;;5.75;2.33;;;;;;;;;;4994025;28;20053;-60
2023/08/30 07:43:41;;;;;;;5.22;2.10;;;;;;;;;;4991126;28;20050;-60
2023/08/30 07:46:41;;;;;;;6.72;2.50;;;;;;;;;;5011450;28;20137;-58
2023/08/30 07:49:28;;;;;;;5.63;2.40;;;;;;;;;;5018300;28;20044;-58
2023/08/30 07:52:23;;;;;;;5.72;2.25;;;;;;;;;;5026674;28;21919;-58
2023/08/30 07:55:13;;;;;;;8.77;2.10;;;;;;;;;;5011262;28;20046;-59
2023/08/30 07:58:09;;;;;;;8.10;2.47;;;;;;;;;;5026870;28;20045;-63
2023/08/30 08:00:53;;;;;;;7.00;2.42;;;;;;;;;;5028810;28;20053;-62
2023/08/30 08:03:48;;;;;;;9.50;2.30;;;;;;;;;;5024003;28;20061;-62
2023/08/30 08:06:35;;;;;;;4.32;2.00;;;;;;;;;;5026480;28;20049;-63
2023/08/30 08:09:28;;;;;;;6.97;2.10;;;;;;;;;;5021801;28;20045;-59
2023/08/30 08:12:15;;;;;;;4.78;1.98;;;;;;;;;;5025514;28;20242;-56
2023/08/30 08:15:10;;;;;;;5.85;2.03;;;;;;;;;;5024950;28;20052;-56
2023/08/30 08:17:57;;;;;;;8.40;2.35;;;;;;;;;;5018818;28;20523;-54
2023/08/30 08:20:52;;;;;;;6.43;2.20;;;;;;;;;;5027019;28;20053;-56
2023/08/30 08:23:39;;;;;;;7.20;2.10;;;;;;;;;;5031273;28;20049;-56
2023/08/30 08:26:32;;;;;;;7.35;2.38;;;;;;;;;;5026706;28;20076;-63
2023/08/30 08:29:19;;;;;;;9.30;2.67;;;;;;;;;;5022622;28;20081;-63
2023/08/30 08:32:13;;;;;;;6.22;2.33;;;;;;;;;;5025725;28;20107;-63
2023/08/30 08:35:08;;;;;;;7.30;2.10;;;;;;;;;;5025449;28;20057;-62
2023/08/30 08:37:54;;;;;;;4.45;1.83;;;;;;;;;;5026513;28;20053;-61
2023/08/30 08:40:50;;;;;;;4.97;2.30;;;;;;;;;;5029790;28;20057;-58
2023/08/30 08:43:43;;;;;;;3.88;1.58;;;;;;;;;;5026173;28;20396;-58
2023/08/30 08:46:38;;;;;;;5.65;1.90;;;;;;;;;;5017639;28;20057;-59
2023/08/30 08:49:37;;;;;;;3.90;1.58;;;;;;;;;;4999567;28;20103;-58
2023/08/30 08:52:25;;;;;;;7.97;1.73;;;;;;;;;;5003778;28;20104;-58
2023/08/30 08:55:27;;;;;;;3.83;1.70;;;;;;;;;;5004932;28;20094;-64
2023/08/30 08:58:15;;;;;;;4.82;1.65;;;;;;;;;;5004230;28;20125;-64
2023/08/30 09:01:09;;;;;;;3.47;1.42;;;;;;;;;;5005224;28;20572;-64
2023/08/30 09:04:07;;;;;;;3.85;1.63;;;;;;;;;;5007169;28;20125;-59
2023/08/30 09:07:00;;;;;;;3.85;1.77;;;;;;;;;;5004804;28;20133;-51
2023/08/30 09:09:47;;;;;;;2.38;1.63;;;;;;;;;;5003614;28;20050;-58
2023/08/30 09:12:40;;;;;;;5.47;1.70;;;;;;;;;;5004391;28;20061;-58
2023/08/30 09:15:34;;;;;;;4.82;1.90;;;;;;;;;;5003191;28;20473;-58
2023/08/30 09:18:27;;;;;;;4.07;1.42;;;;;;;;;;5003441;28;20049;-58
2023/08/30 09:21:33;;;;;;;6.72;1.98;;;;;;;;;;5004226;28;20060;-58
2023/08/30 09:24:26;;;;;;;4.78;1.92;;;;;;;;;;5002153;28;20053;-63
2023/08/30 09:27:14;;;;;;;6.72;1.92;;;;;;;;;;5001004;28;20050;-64
2023/08/30 09:30:10;;;;;;;4.20;1.55;;;;;;;;;;5002547;28;20046;-63
2023/08/30 09:32:55;;;;;;;3.83;1.45;;;;;;;;;;5004341;28;20050;-50
2023/08/30 09:35:48;;;;;;;2.97;1.58;;;;;;;;;;5002611;28;20407;-58
2023/08/30 09:38:37;;;;;;;3.22;1.35;;;;;;;;;;5003741;28;20136;-63
2023/08/30 09:41:32;;;;;;;2.72;1.40;;;;;;;;;;5000886;28;20493;-63
2023/08/30 09:44:24;;;;;;;3.38;1.60;;;;;;;;;;5002366;28;20549;-63
2023/08/30 09:47:16;;;;;;;5.53;1.92;;;;;;;;;;5005752;28;20057;-63
2023/08/30 09:50:10;;;;;;;7.68;1.83;;;;;;;;;;5006003;28;20046;-63
2023/08/30 09:53:09;;;;;;;1.83;1.52;;;;;;;;;;5005088;28;20461;-49
2023/08/30 09:56:01;;;;;;;6.97;1.90;;;;;;;;;;5004279;28;20061;-48
2023/08/30 09:58:56;;;;;;;7.88;1.80;;;;;;;;;;5002273;28;20620;-47
2023/08/30 10:01:43;;;;;;;3.85;1.60;;;;;;;;;;5002888;28;20129;-59
2023/08/30 10:04:41;;;;;;;2.22;1.30;;;;;;;;;;5004744;28;20398;-54
2023/08/30 10:07:28;;;;;;;3.47;1.58;;;;;;;;;;5003445;28;21286;-57
2023/08/30 10:10:26;;;;;;;2.30;1.30;;;;;;;;;;4986050;28;20060;-57
2023/08/30 10:13:14;;;;;;;3.75;1.60;;;;;;;;;;4996132;28;20117;-56
2023/08/30 10:16:08;;;;;;;2.90;1.10;;;;;;;;;;5007726;28;20395;-54
2023/08/30 10:19:01;;;;;;;2.50;1.23;;;;;;;;;;5006056;28;20054;-58
2023/08/30 10:22:03;;;;;;;2.00;1.40;;;;;;;;;;5003112;28;20060;-51
2023/08/30 10:24:58;;;;;;;5.18;1.42;;;;;;;;;;5003813;28;20053;-51
2023/08/30 10:27:52;;;;;;;1.85;1.05;;;;;;;;;;5007859;28;20579;-47
2023/08/30 10:30:53;;;;;;;2.03;1.30;;;;;;;;;;5001794;28;20113;-62
2023/08/30 10:33:45;;;;;;;;;;;;;;;;;;5006130;28;20094;-50
2023/08/30 10:36:38;;;;;;;5.50;1.70;;;;;;;;;;5001293;28;19925;-47
2023/08/30 10:39:34;;;;;;;4.53;1.40;;;;;;;;;;5004995;28;20136;-53
2023/08/30 10:42:26;;;;;;;1.70;1.20;;;;;;;;;;5001789;28;20588;-50
2023/08/30 10:45:13;;;;;;;3.03;1.05;;;;;;;;;;5006666;28;20532;-49
2023/08/30 10:48:14;;;;;;;4.32;1.35;;;;;;;;;;5025570;28;20103;-59
2023/08/30 10:51:04;;;;;;;2.53;1.10;;;;;;;;;;5027177;28;20057;-60
2023/08/30 10:53:57;;;;;;;2.15;1.27;;;;;;;;;;5028575;28;21784;-60
2023/08/30 10:56:48;;;;;;;2.70;1.33;;;;;;;;;;5024178;28;20898;-60
2023/08/30 11:00:03;;;;;;;2.95;1.50;;;;;;;;;;5022097;28;20510;-61
2023/08/30 11:02:49;;;;;;;7.40;1.73;;;;;;;;;;5023181;28;20136;-56
2023/08/30 11:05:44;;;;;;;2.55;1.35;;;;;;;;;;5024152;28;20056;-56
2023/08/30 11:08:31;;;;;;;5.88;1.60;;;;;;;;;;5021956;28;20048;-55
2023/08/30 11:11:25;;;;;;;5.43;1.75;;;;;;;;;;5012672;28;20112;-57
2023/08/30 11:14:12;;;;;;;1.70;1.20;;;;;;;;;;5016030;28;20049;-55
2023/08/30 11:17:10;;;;;;;4.07;1.23;;;;;;;;;;5016005;28;20493;-61
2023/08/30 11:20:11;;;;;;;1.98;1.40;;;;;;;;;;5015967;28;20905;-61
2023/08/30 11:23:04;;;;;;;1.55;1.13;;;;;;;;;;5024250;28;20113;-60
2023/08/30 11:25:52;;;;;;;4.25;1.50;;;;;;;;;;5017356;28;20143;-61
2023/08/30 11:28:48;;;;;;;2.50;1.10;;;;;;;;;;5026661;28;20053;-49
2023/08/30 11:31:32;;;;;;;4.78;1.05;;;;;;;;;;5022838;28;20053;-56
2023/08/30 11:34:26;;;;;;;2.35;1.17;;;;;;;;;;5016694;28;20494;-56
2023/08/30 11:37:13;;;;;;;2.40;1.20;;;;;;;;;;5016819;28;20135;-58
2023/08/30 11:40:08;;;;;;;3.30;1.30;;;;;;;;;;5017625;28;20050;-56
2023/08/30 11:43:02;;;;;;;2.15;1.10;;;;;;;;;;5025012;28;20187;-55
2023/08/30 11:45:56;;;;;;;4.07;1.50;;;;;;;;;;5023745;28;20049;-48
2023/08/30 11:48:56;;;;;;;1.83;1.17;;;;;;;;;;5006423;28;20444;-46
2023/08/30 11:51:43;;;;;;;4.80;1.30;;;;;;;;;;5004109;28;20576;-48
2023/08/30 11:54:38;;;;;;;3.40;1.45;;;;;;;;;;5006261;28;20054;-48
2023/08/30 11:57:26;;;;;;;1.83;1.17;;;;;;;;;;5006720;28;20049;-61
2023/08/30 12:00:19;;;;;;;2.70;1.40;;;;;;;;;;5004924;28;20098;-59
2023/08/30 12:03:15;;;;;;;2.40;1.27;;;;;;;;;;5004456;28;20100;-58
2023/08/30 12:06:14;;;;;;;2.78;1.20;;;;;;;;;;4992320;28;20054;-59
2023/08/30 12:09:03;;;;;;;3.83;1.30;;;;;;;;;;4992732;28;20052;-58
2023/08/30 12:12:05;;;;;;;1.92;1.20;;;;;;;;;;5004271;28;20045;-59
2023/08/30 12:14:56;;;;;;;6.00;1.00;;;;;;;;;;5005073;28;20069;-60
2023/08/30 12:17:49;;;;;;;2.25;1.30;;;;;;;;;;5000872;28;20425;-61
2023/08/30 12:20:36;;;;;;;3.55;1.10;;;;;;;;;;5002443;28;20541;-60
2023/08/30 12:23:30;;;;;;;2.03;1.13;;;;;;;;;;5001015;28;20069;-61
2023/08/30 12:26:18;;;;;;;3.17;1.30;;;;;;;;;;4998954;28;20637;-48
2023/08/30 12:29:18;;;;;;;3.47;1.13;;;;;;;;;;5004571;28;20058;-60
2023/08/30 12:32:06;;;;;;;2.70;1.20;;;;;;;;;;5002490;28;20108;-60
2023/08/30 12:34:59;;;;;;;2.33;1.35;;;;;;;;;;5006364;28;20498;-61
2023/08/30 12:37:46;;;;;;;4.13;1.23;;;;;;;;;;5002922;28;20045;-60
2023/08/30 12:40:40;;;;;;;1.52;1.10;;;;;;;;;;5005126;28;20050;-60
2023/08/30 12:43:28;;;;;;;2.00;1.38;;;;;;;;;;5004288;28;20156;-56
2023/08/30 12:46:34;;;;;;;2.13;1.60;;;;;;;;;;5004790;28;20978;-56
2023/08/30 12:49:29;;;;;;;3.40;1.40;;;;;;;;;;5004074;28;20107;-57
2023/08/30 12:52:17;;;;;;;4.15;1.83;;;;;;;;;;5004519;28;20062;-61
2023/08/30 12:55:09;;;;;;;2.60;1.33;;;;;;;;;;5000710;28;20057;-59
2023/08/30 12:57:57;;;;;;;3.17;1.40;;;;;;;;;;5006654;28;20089;-59
2023/08/30 13:00:51;;;;;;;2.00;1.40;;;;;;;;;;5002034;28;20483;-59
2023/08/30 13:03:38;;;;;;;1.67;1.30;;;;;;;;;;5006492;28;20056;-59
2023/08/30 13:06:32;;;;;;;3.63;1.17;;;;;;;;;;5005185;28;20064;-59
2023/08/30 13:09:19;;;;;;;1.75;1.42;;;;;;;;;;5001783;28;20057;-59
2023/08/30 13:12:12;;;;;;;6.35;1.48;;;;;;;;;;5003446;28;20100;-62
2023/08/30 13:14:59;;;;;;;2.70;1.33;;;;;;;;;;5003588;28;20057;-62
2023/08/30 13:17:53;;;;;;;4.55;1.40;;;;;;;;;;5005067;28;20053;-62
2023/08/30 13:20:41;;;;;;;1.92;1.30;;;;;;;;;;5000378;28;20132;-62
2023/08/30 13:23:35;;;;;;;2.03;1.23;;;;;;;;;;5001823;28;20152;-48
2023/08/30 13:26:22;;;;;;;2.15;1.23;;;;;;;;;;5005853;28;20045;-55
2023/08/30 13:29:16;;;;;;;3.45;1.50;;;;;;;;;;5000919;28;20639;-57
2023/08/30 13:32:09;;;;;;;1.40;1.30;;;;;;;;;;5002940;28;20049;-57
2023/08/30 13:35:04;;;;;;;4.03;1.20;;;;;;;;;;5000481;28;20636;-57
2023/08/30 13:37:51;;;;;;;3.70;1.58;;;;;;;;;;5003038;28;20053;-58
2023/08/30 13:40:45;;;;;;;2.25;1.30;;;;;;;;;;5008337;28;20045;-61
2023/08/30 13:43:32;;;;;;;4.22;1.70;;;;;;;;;;5004107;28;21086;-61
2023/08/30 13:46:42;;;;;;;1.42;1.27;;;;;;;;;;5002919;28;20058;-61
2023/08/30 13:49:29;;;;;;;3.28;1.70;;;;;;;;;;5018154;28;20049;-61
2023/08/30 13:52:45;;;;;;;3.80;1.33;;;;;;;;;;5010607;28;20139;-60
2023/08/30 13:55:39;;;;;;;2.45;1.45;;;;;;;;;;5026201;28;20061;-60
2023/08/30 13:58:33;;;;;;;1.83;1.35;;;;;;;;;;5021685;28;20048;-60
2023/08/30 14:01:20;;;;;;;3.15;1.13;;;;;;;;;;5021641;28;20053;-60
2023/08/30 14:04:15;;;;;;;3.75;1.38;;;;;;;;;;5018629;28;20140;-60
2023/08/30 14:07:03;;;;;;;3.65;1.40;;;;;;;;;;5021815;28;20064;-60
2023/08/30 14:09:55;;;;;;;1.27;0.95;;;;;;;;;;5018336;28;20146;-62
2023/08/30 14:12:50;;;;;;;2.67;1.58;;;;;;;;;;5022715;28;20049;-62
2023/08/30 14:15:43;;;;;;;2.80;1.48;;;;;;;;;;5023854;28;20623;-61
2023/08/30 14:18:31;;;;;;;4.35;1.45;;;;;;;;;;5023897;28;20059;-60
2023/08/30 14:21:25;;;;;;;1.95;1.13;;;;;;;;;;5019511;28;20053;-60
2023/08/30 14:24:12;;;;;;;3.08;1.40;;;;;;;;;;5018192;28;20065;-60
2023/08/30 14:27:25;;;;;;;2.95;1.35;;;;;;;;;;5021581;28;20042;-59
2023/08/30 14:30:13;;;;;;;2.28;1.30;;;;;;;;;;5020525;28;20049;-60
2023/08/30 14:33:07;;;;;;;2.25;1.30;;;;;;;;;;5022547;28;20104;-59
2023/08/30 14:35:54;;;;;;;6.80;1.67;;;;;;;;;;5017648;28;20573;-59
2023/08/30 14:38:47;;;;;;;2.10;1.45;;;;;;;;;;5021817;28;20079;-59
2023/08/30 14:41:36;;;;;;;3.88;1.52;;;;;;;;;;5020945;28;20757;-59
2023/08/30 14:44:28;;;;;;;5.47;1.48;;;;;;;;;;5022134;28;20077;-59
2023/08/30 14:47:22;;;;;;;2.70;1.60;;;;;;;;;;5017523;28;20481;-63
2023/08/30 14:50:22;;;;;;;3.47;1.30;;;;;;;;;;5003337;28;20506;-61
2023/08/30 14:53:09;;;;;;;2.72;1.52;;;;;;;;;;5005581;28;20117;-61
2023/08/30 14:56:07;;;;;;;1.33;1.20;;;;;;;;;;5003011;28;20057;-61
2023/08/30 14:58:54;;;;;;;3.28;1.38;;;;;;;;;;5001061;28;20157;-62
2023/08/30 15:01:47;;;;;;;2.33;1.40;;;;;;;;;;4990239;28;20047;-61
2023/08/30 15:04:35;;;;;;;2.97;1.40;;;;;;;;;;4982873;28;20058;-50
2023/08/30 15:07:28;;;;;;;2.58;1.48;;;;;;;;;;5003172;28;20046;-52
2023/08/30 15:10:16;;;;;;;1.65;1.40;;;;;;;;;;5002230;28;20058;-47
2023/08/30 15:13:10;;;;;;;2.72;1.58;;;;;;;;;;5003692;28;20054;-54
2023/08/30 15:15:57;;;;;;;1.83;1.20;;;;;;;;;;4999559;28;20058;-62
2023/08/30 15:18:51;;;;;;;5.25;2.08;;;;;;;;;;5004291;28;20048;-49
2023/08/30 15:21:39;;;;;;;3.30;1.02;;;;;;;;;;5000100;28;20057;-51
2023/08/30 15:24:32;;;;;;;3.80;1.67;;;;;;;;;;5002643;28;20107;-51
2023/08/30 15:27:19;;;;;;;4.72;1.63;;;;;;;;;;5001637;28;20108;-49
2023/08/30 15:30:14;;;;;;;3.42;1.70;;;;;;;;;;5000911;28;20054;-47
2023/08/30 15:33:01;;;;;;;4.25;1.50;;;;;;;;;;5001217;28;20116;-60
2023/08/30 15:35:58;;;;;;;5.18;1.70;;;;;;;;;;5004928;28;20056;-59
2023/08/30 15:38:45;;;;;;;3.83;1.55;;;;;;;;;;5005008;28;20061;-59
2023/08/30 15:41:38;;;;;;;2.70;1.73;;;;;;;;;;5005292;28;20054;-59
2023/08/30 15:44:26;;;;;;;3.42;1.50;;;;;;;;;;5004861;28;20073;-46
2023/08/30 15:47:32;;;;;;;5.40;2.03;;;;;;;;;;5009182;28;20532;-56
2023/08/30 15:50:20;;;;;;;3.95;2.00;;;;;;;;;;5007057;28;20046;-56
2023/08/30 15:53:14;;;;;;;3.40;2.15;;;;;;;;;;5006081;28;20058;-58
2023/08/30 15:56:01;;;;;;;4.78;2.15;;;;;;;;;;5005204;28;20509;-57
2023/08/30 15:58:55;;;;;;;4.57;2.20;;;;;;;;;;5004971;28;20132;-56
2023/08/30 16:01:48;;;;;;;6.15;2.53;;;;;;;;;;5001279;28;20062;-48
2023/08/30 16:04:43;;;;;;;7.00;1.95;;;;;;;;;;4999995;28;20096;-47
2023/08/30 16:07:37;;;;;;;6.55;2.13;;;;;;;;;;5001844;28;20133;-47
2023/08/30 16:10:32;;;;;;;3.90;2.20;;;;;;;;;;5002146;28;20046;-53
2023/08/30 16:13:19;;;;;;;6.47;2.22;;;;;;;;;;5004343;28;20057;-53
2023/08/30 16:16:12;;;;;;;3.70;1.90;;;;;;;;;;5000280;28;20049;-63
2023/08/30 16:19:10;;;;;;;4.78;1.90;;;;;;;;;;4996858;28;20064;-63
2023/08/30 16:21:55;;;;;;;2.55;1.90;;;;;;;;;;4995580;28;20777;-63
2023/08/30 16:24:50;;;;;;;9.93;2.15;;;;;;;;;;4995440;28;20621;-62
2023/08/30 16:27:37;;;;;;;5.38;2.20;;;;;;;;;;4994748;28;20414;-62
2023/08/30 16:30:32;;;;;;;7.25;2.00;;;;;;;;;;5003921;28;20053;-60
2023/08/30 16:33:19;;;;;;;4.53;1.90;;;;;;;;;;5001083;28;20053;-51
2023/08/30 16:36:11;;;;;;;4.38;1.70;;;;;;;;;;5005572;28;20049;-47
2023/08/30 16:38:59;;;;;;;3.90;1.80;;;;;;;;;;5001482;28;20050;-51
2023/08/30 16:41:53;;;;;;;2.63;1.73;;;;;;;;;;5004237;28;20058;-54
2023/08/30 16:44:40;;;;;;;4.20;2.10;;;;;;;;;;5002033;28;20101;-49
2023/08/30 16:47:46;;;;;;;2.35;1.80;;;;;;;;;;5003738;28;20473;-52
2023/08/30 16:50:41;;;;;;;4.90;1.70;;;;;;;;;;5001137;28;20132;-46
2023/08/30 16:53:35;;;;;;;3.92;1.75;;;;;;;;;;5003029;28;20054;-52
2023/08/30 16:56:22;;;;;;;3.95;2.03;;;;;;;;;;4999726;28;20075;-48
2023/08/30 16:59:15;;;;;;;4.28;1.58;;;;;;;;;;5000432;28;20054;-51
2023/08/30 17:02:04;;;;;;;2.63;1.85;;;;;;;;;;4995342;28;20058;-59
2023/08/30 17:04:58;;;;;;;7.60;1.80;;;;;;;;;;4997769;28;20796;-60
2023/08/30 17:07:45;;;;;;;2.78;1.70;;;;;;;;;;4992516;28;20057;-59